sensor_id;sensor_type;location;lat;lon;timestamp;pressure;altitude;pressure_sealevel;temperature
20848;BMP180;10584;50.854;12.902;2022-12-01T00:01:24;98834.00;;;2.80
20848;BMP180;10584;50.854;12.902;2022-12-01T00:06:27;98826.00;;;2.80
20848;BMP180;10584;50.854;12.902;2022-12-01T00:11:30;98825.00;;;2.80
20848;BMP180;10584;50.854;12.902;2022-12-01T00:16:35;98815.00;;;2.70
20848;BMP180;10584;50.854;12.902;2022-12-01T00:21:38;98824.00;;;2.60
20848;BMP180;10584;50.854;12.902;2022-12-01T00:26:41;98819.00;;;2.50
20848;BMP180;10584;50.854;12.902;2022-12-01T00:31:44;98816.00;;;2.40
20848;BMP180;10584;50.854;12.902;2022-12-01T00:36:47;98823.00;;;2.30
20848;BMP180;10584;50.854;12.902;2022-12-01T00:41:50;98822.00;;;2.20
20848;BMP180;10584;50.854;12.902;2022-12-01T00:46:53;98822.00;;;2.00
20848;BMP180;10584;50.854;12.902;2022-12-01T00:51:56;98826.00;;;1.80
20848;BMP180;10584;50.854;12.902;2022-12-01T00:56:59;98826.00;;;1.70
20848;BMP180;10584;50.854;12.902;2022-12-01T01:02:06;98830.00;;;1.60
20848;BMP180;10584;50.854;12.902;2022-12-01T01:07:09;98835.00;;;1.40
20848;BMP180;10584;50.854;12.902;2022-12-01T01:12:12;98829.00;;;1.30
20848;BMP180;10584;50.854;12.902;2022-12-01T01:17:15;98827.00;;;1.20
20848;BMP180;10584;50.854;12.902;2022-12-01T01:22:19;98829.00;;;1.10
20848;BMP180;10584;50.854;12.902;2022-12-01T01:27:22;98842.00;;;0.90
20848;BMP180;10584;50.854;12.902;2022-12-01T01:32:25;98839.00;;;0.90
20848;BMP180;10584;50.854;12.902;2022-12-01T01:37:28;98834.00;;;0.90
20848;BMP180;10584;50.854;12.902;2022-12-01T01:42:31;98839.00;;;0.90
20848;BMP180;10584;50.854;12.902;2022-12-01T01:47:39;98836.00;;;0.80
20848;BMP180;10584;50.854;12.902;2022-12-01T01:52:50;98850.00;;;0.80
20848;BMP180;10584;50.854;12.902;2022-12-01T01:57:53;98853.00;;;0.80
20848;BMP180;10584;50.854;12.902;2022-12-01T02:02:56;98842.00;;;0.80
20848;BMP180;10584;50.854;12.902;2022-12-01T02:08:01;98845.00;;;0.70
20848;BMP180;10584;50.854;12.902;2022-12-01T02:34:43;98846.00;;;0.70
20848;BMP180;10584;50.854;12.902;2022-12-01T02:45:05;98861.00;;;0.80
20848;BMP180;10584;50.854;12.902;2022-12-01T02:50:13;98847.00;;;0.80
20848;BMP180;10584;50.854;12.902;2022-12-01T02:55:16;98850.00;;;0.50
20848;BMP180;10584;50.854;12.902;2022-12-01T03:00:19;98843.00;;;0.60
20848;BMP180;10584;50.854;12.902;2022-12-01T03:21:09;98836.00;;;0.50
20848;BMP180;10584;50.854;12.902;2022-12-01T03:26:17;98842.00;;;0.50
20848;BMP180;10584;50.854;12.902;2022-12-01T03:31:25;98841.00;;;0.50
20848;BMP180;10584;50.854;12.902;2022-12-01T03:37:00;98849.00;;;0.60
20848;BMP180;10584;50.854;12.902;2022-12-01T03:42:23;98845.00;;;0.60
20848;BMP180;10584;50.854;12.902;2022-12-01T03:47:29;98841.00;;;0.60
20848;BMP180;10584;50.854;12.902;2022-12-01T03:52:39;98834.00;;;0.60
20848;BMP180;10584;50.854;12.902;2022-12-01T03:57:57;98845.00;;;0.50
20848;BMP180;10584;50.854;12.902;2022-12-01T04:03:03;98857.00;;;0.60
20848;BMP180;10584;50.854;12.902;2022-12-01T04:08:06;98855.00;;;0.50
20848;BMP180;10584;50.854;12.902;2022-12-01T04:13:09;98850.00;;;0.50
20848;BMP180;10584;50.854;12.902;2022-12-01T04:18:19;98852.00;;;0.60
20848;BMP180;10584;50.854;12.902;2022-12-01T04:23:22;98861.00;;;0.50
20848;BMP180;10584;50.854;12.902;2022-12-01T04:28:43;98858.00;;;0.40
20848;BMP180;10584;50.854;12.902;2022-12-01T04:33:46;98855.00;;;0.50
20848;BMP180;10584;50.854;12.902;2022-12-01T04:38:49;98861.00;;;0.50
20848;BMP180;10584;50.854;12.902;2022-12-01T04:43:53;98850.00;;;0.50
20848;BMP180;10584;50.854;12.902;2022-12-01T04:48:57;98857.00;;;0.50
20848;BMP180;10584;50.854;12.902;2022-12-01T04:54:01;98850.00;;;0.50
20848;BMP180;10584;50.854;12.902;2022-12-01T04:59:04;98853.00;;;0.50
20848;BMP180;10584;50.854;12.902;2022-12-01T05:04:10;98863.00;;;0.50
20848;BMP180;10584;50.854;12.902;2022-12-01T05:09:15;98859.00;;;0.50
20848;BMP180;10584;50.854;12.902;2022-12-01T05:14:19;98867.00;;;0.50
20848;BMP180;10584;50.854;12.902;2022-12-01T05:19:22;98866.00;;;0.50
20848;BMP180;10584;50.854;12.902;2022-12-01T05:24:44;98871.00;;;0.50
20848;BMP180;10584;50.854;12.902;2022-12-01T05:29:47;98871.00;;;0.50
20848;BMP180;10584;50.854;12.902;2022-12-01T05:34:50;98864.00;;;0.60
20848;BMP180;10584;50.854;12.902;2022-12-01T05:39:53;98861.00;;;0.50
20848;BMP180;10584;50.854;12.902;2022-12-01T05:44:56;98871.00;;;0.50
20848;BMP180;10584;50.854;12.902;2022-12-01T05:49:59;98877.00;;;0.40
20848;BMP180;10584;50.854;12.902;2022-12-01T05:55:07;98873.00;;;0.40
20848;BMP180;10584;50.854;12.902;2022-12-01T06:00:12;98875.00;;;0.30
20848;BMP180;10584;50.854;12.902;2022-12-01T06:05:15;98877.00;;;0.40
20848;BMP180;10584;50.854;12.902;2022-12-01T06:10:20;98881.00;;;0.40
20848;BMP180;10584;50.854;12.902;2022-12-01T06:15:23;98880.00;;;0.30
20848;BMP180;10584;50.854;12.902;2022-12-01T06:20:26;98877.00;;;0.40
20848;BMP180;10584;50.854;12.902;2022-12-01T06:25:29;98873.00;;;0.50
20848;BMP180;10584;50.854;12.902;2022-12-01T06:30:32;98881.00;;;0.50
20848;BMP180;10584;50.854;12.902;2022-12-01T06:35:36;98880.00;;;0.50
20848;BMP180;10584;50.854;12.902;2022-12-01T06:40:39;98891.00;;;0.50
20848;BMP180;10584;50.854;12.902;2022-12-01T06:45:42;98899.00;;;0.40
20848;BMP180;10584;50.854;12.902;2022-12-01T06:50:47;98903.00;;;0.30
20848;BMP180;10584;50.854;12.902;2022-12-01T06:55:50;98905.00;;;0.40
20848;BMP180;10584;50.854;12.902;2022-12-01T07:00:53;98914.00;;;0.40
20848;BMP180;10584;50.854;12.902;2022-12-01T07:06:00;98914.00;;;0.50
20848;BMP180;10584;50.854;12.902;2022-12-01T07:11:06;98920.00;;;0.50
20848;BMP180;10584;50.854;12.902;2022-12-01T07:16:09;98917.00;;;0.50
20848;BMP180;10584;50.854;12.902;2022-12-01T07:21:14;98919.00;;;0.50
20848;BMP180;10584;50.854;12.902;2022-12-01T07:26:17;98934.00;;;0.40
20848;BMP180;10584;50.854;12.902;2022-12-01T07:31:20;98933.00;;;0.40
20848;BMP180;10584;50.854;12.902;2022-12-01T07:36:24;98924.00;;;0.40
20848;BMP180;10584;50.854;12.902;2022-12-01T07:41:27;98921.00;;;0.30
20848;BMP180;10584;50.854;12.902;2022-12-01T07:46:30;98917.00;;;0.30
20848;BMP180;10584;50.854;12.902;2022-12-01T07:51:33;98936.00;;;0.30
20848;BMP180;10584;50.854;12.902;2022-12-01T07:56:36;98934.00;;;0.40
20848;BMP180;10584;50.854;12.902;2022-12-01T08:01:39;98933.00;;;0.40
20848;BMP180;10584;50.854;12.902;2022-12-01T08:06:49;98938.00;;;0.40
20848;BMP180;10584;50.854;12.902;2022-12-01T08:11:52;98937.00;;;0.40
20848;BMP180;10584;50.854;12.902;2022-12-01T08:16:55;98939.00;;;0.50
20848;BMP180;10584;50.854;12.902;2022-12-01T08:21:58;98938.00;;;0.40
20848;BMP180;10584;50.854;12.902;2022-12-01T08:27:01;98936.00;;;0.40
20848;BMP180;10584;50.854;12.902;2022-12-01T08:32:04;98929.00;;;0.50
20848;BMP180;10584;50.854;12.902;2022-12-01T08:37:08;98931.00;;;0.40
20848;BMP180;10584;50.854;12.902;2022-12-01T08:42:11;98936.00;;;0.50
20848;BMP180;10584;50.854;12.902;2022-12-01T08:47:14;98934.00;;;0.50
20848;BMP180;10584;50.854;12.902;2022-12-01T08:52:20;98936.00;;;0.50
20848;BMP180;10584;50.854;12.902;2022-12-01T08:57:23;98949.00;;;0.70
20848;BMP180;10584;50.854;12.902;2022-12-01T09:02:26;98949.00;;;0.60
20848;BMP180;10584;50.854;12.902;2022-12-01T09:07:30;98956.00;;;0.70
20848;BMP180;10584;50.854;12.902;2022-12-01T09:12:34;98965.00;;;0.70
20848;BMP180;10584;50.854;12.902;2022-12-01T09:17:37;98958.00;;;0.80
20848;BMP180;10584;50.854;12.902;2022-12-01T09:22:40;98965.00;;;0.70
20848;BMP180;10584;50.854;12.902;2022-12-01T09:27:43;98967.00;;;0.80
20848;BMP180;10584;50.854;12.902;2022-12-01T09:32:46;98972.00;;;0.80
20848;BMP180;10584;50.854;12.902;2022-12-01T09:37:49;98951.00;;;0.80
20848;BMP180;10584;50.854;12.902;2022-12-01T09:42:53;98950.00;;;0.80
20848;BMP180;10584;50.854;12.902;2022-12-01T09:47:58;98940.00;;;0.70
20848;BMP180;10584;50.854;12.902;2022-12-01T09:53:12;98938.00;;;0.80
20848;BMP180;10584;50.854;12.902;2022-12-01T09:58:23;98944.00;;;0.80
20848;BMP180;10584;50.854;12.902;2022-12-01T10:03:37;98931.00;;;0.90
20848;BMP180;10584;50.854;12.902;2022-12-01T10:09:42;98929.00;;;0.90
20848;BMP180;10584;50.854;12.902;2022-12-01T10:14:19;98930.00;;;0.90
20848;BMP180;10584;50.854;12.902;2022-12-01T10:30:17;98921.00;;;0.90
20848;BMP180;10584;50.854;12.902;2022-12-01T10:35:23;98918.00;;;1.00
20848;BMP180;10584;50.854;12.902;2022-12-01T10:40:27;98914.00;;;1.10
20848;BMP180;10584;50.854;12.902;2022-12-01T10:45:34;98924.00;;;1.10
20848;BMP180;10584;50.854;12.902;2022-12-01T10:50:39;98918.00;;;1.10
20848;BMP180;10584;50.854;12.902;2022-12-01T10:55:42;98926.00;;;1.00
20848;BMP180;10584;50.854;12.902;2022-12-01T11:01:03;98920.00;;;1.10
20848;BMP180;10584;50.854;12.902;2022-12-01T11:06:08;98914.00;;;1.20
20848;BMP180;10584;50.854;12.902;2022-12-01T11:11:23;98913.00;;;1.20
20848;BMP180;10584;50.854;12.902;2022-12-01T11:16:42;98910.00;;;1.20
20848;BMP180;10584;50.854;12.902;2022-12-01T11:21:57;98913.00;;;1.20
20848;BMP180;10584;50.854;12.902;2022-12-01T11:27:00;98903.00;;;1.30
20848;BMP180;10584;50.854;12.902;2022-12-01T11:32:17;98912.00;;;1.20
20848;BMP180;10584;50.854;12.902;2022-12-01T11:37:23;98906.00;;;1.30
20848;BMP180;10584;50.854;12.902;2022-12-01T11:42:28;98898.00;;;1.30
20848;BMP180;10584;50.854;12.902;2022-12-01T11:47:32;98892.00;;;1.30
20848;BMP180;10584;50.854;12.902;2022-12-01T11:52:45;98887.00;;;1.50
20848;BMP180;10584;50.854;12.902;2022-12-01T11:57:59;98891.00;;;1.50
20848;BMP180;10584;50.854;12.902;2022-12-01T12:03:36;98889.00;;;1.50
20848;BMP180;10584;50.854;12.902;2022-12-01T12:09:29;98889.00;;;1.60
20848;BMP180;10584;50.854;12.902;2022-12-01T12:30:27;98872.00;;;1.50
20848;BMP180;10584;50.854;12.902;2022-12-01T12:35:36;98873.00;;;1.50
20848;BMP180;10584;50.854;12.902;2022-12-01T12:40:54;98877.00;;;1.50
20848;BMP180;10584;50.854;12.902;2022-12-01T12:56:24;98865.00;;;1.50
20848;BMP180;10584;50.854;12.902;2022-12-01T13:01:39;98852.00;;;1.60
20848;BMP180;10584;50.854;12.902;2022-12-01T13:07:19;98859.00;;;1.70
20848;BMP180;10584;50.854;12.902;2022-12-01T13:12:31;98857.00;;;1.60
20848;BMP180;10584;50.854;12.902;2022-12-01T13:17:48;98865.00;;;1.60
20848;BMP180;10584;50.854;12.902;2022-12-01T13:22:57;98862.00;;;1.60
20848;BMP180;10584;50.854;12.902;2022-12-01T13:28:03;98863.00;;;1.70
20848;BMP180;10584;50.854;12.902;2022-12-01T13:33:12;98862.00;;;1.60
20848;BMP180;10584;50.854;12.902;2022-12-01T13:38:27;98858.00;;;1.70
20848;BMP180;10584;50.854;12.902;2022-12-01T13:43:32;98854.00;;;1.70
20848;BMP180;10584;50.854;12.902;2022-12-01T13:54:04;98857.00;;;1.60
20848;BMP180;10584;50.854;12.902;2022-12-01T13:59:38;98849.00;;;1.60
20848;BMP180;10584;50.854;12.902;2022-12-01T14:04:42;98856.00;;;1.60
20848;BMP180;10584;50.854;12.902;2022-12-01T14:09:45;98853.00;;;1.50
20848;BMP180;10584;50.854;12.902;2022-12-01T14:15:26;98853.00;;;1.30
20848;BMP180;10584;50.854;12.902;2022-12-01T14:20:34;98849.00;;;1.40
20848;BMP180;10584;50.854;12.902;2022-12-01T14:25:40;98868.00;;;1.40
20848;BMP180;10584;50.854;12.902;2022-12-01T14:35:47;98853.00;;;1.40
20848;BMP180;10584;50.854;12.902;2022-12-01T14:40:51;98845.00;;;1.30
20848;BMP180;10584;50.854;12.902;2022-12-01T14:46:09;98850.00;;;1.20
20848;BMP180;10584;50.854;12.902;2022-12-01T14:51:32;98848.00;;;1.20
20848;BMP180;10584;50.854;12.902;2022-12-01T14:56:37;98854.00;;;1.20
20848;BMP180;10584;50.854;12.902;2022-12-01T15:01:40;98840.00;;;1.30
20848;BMP180;10584;50.854;12.902;2022-12-01T15:06:44;98841.00;;;1.20
20848;BMP180;10584;50.854;12.902;2022-12-01T15:11:59;98844.00;;;1.20
20848;BMP180;10584;50.854;12.902;2022-12-01T15:17:04;98847.00;;;1.10
20848;BMP180;10584;50.854;12.902;2022-12-01T15:22:15;98849.00;;;1.10
20848;BMP180;10584;50.854;12.902;2022-12-01T15:27:31;98845.00;;;1.10
20848;BMP180;10584;50.854;12.902;2022-12-01T15:32:36;98840.00;;;1.00
20848;BMP180;10584;50.854;12.902;2022-12-01T15:37:45;98851.00;;;1.10
20848;BMP180;10584;50.854;12.902;2022-12-01T15:43:05;98853.00;;;1.10
20848;BMP180;10584;50.854;12.902;2022-12-01T15:48:28;98859.00;;;1.00
20848;BMP180;10584;50.854;12.902;2022-12-01T15:53:35;98856.00;;;0.90
20848;BMP180;10584;50.854;12.902;2022-12-01T15:58:46;98852.00;;;0.80
20848;BMP180;10584;50.854;12.902;2022-12-01T16:03:59;98848.00;;;0.80
20848;BMP180;10584;50.854;12.902;2022-12-01T16:14:22;98861.00;;;0.60
20848;BMP180;10584;50.854;12.902;2022-12-01T16:19:29;98859.00;;;0.50
20848;BMP180;10584;50.854;12.902;2022-12-01T16:24:34;98866.00;;;0.50
20848;BMP180;10584;50.854;12.902;2022-12-01T16:30:05;98856.00;;;0.60
20848;BMP180;10584;50.854;12.902;2022-12-01T16:35:26;98864.00;;;0.60
20848;BMP180;10584;50.854;12.902;2022-12-01T16:40:29;98856.00;;;0.70
20848;BMP180;10584;50.854;12.902;2022-12-01T16:45:32;98854.00;;;0.50
20848;BMP180;10584;50.854;12.902;2022-12-01T16:50:36;98860.00;;;0.50
20848;BMP180;10584;50.854;12.902;2022-12-01T16:55:55;98863.00;;;0.50
20848;BMP180;10584;50.854;12.902;2022-12-01T17:00:59;98861.00;;;0.50
20848;BMP180;10584;50.854;12.902;2022-12-01T17:06:03;98868.00;;;0.50
20848;BMP180;10584;50.854;12.902;2022-12-01T17:11:07;98860.00;;;0.50
20848;BMP180;10584;50.854;12.902;2022-12-01T17:16:10;98855.00;;;0.50
20848;BMP180;10584;50.854;12.902;2022-12-01T17:21:20;98873.00;;;0.50
20848;BMP180;10584;50.854;12.902;2022-12-01T17:26:23;98867.00;;;0.50
20848;BMP180;10584;50.854;12.902;2022-12-01T17:31:27;98863.00;;;0.50
20848;BMP180;10584;50.854;12.902;2022-12-01T17:36:30;98862.00;;;0.40
20848;BMP180;10584;50.854;12.902;2022-12-01T17:41:33;98868.00;;;0.30
20848;BMP180;10584;50.854;12.902;2022-12-01T17:46:37;98866.00;;;0.30
20848;BMP180;10584;50.854;12.902;2022-12-01T17:51:41;98883.00;;;0.40
20848;BMP180;10584;50.854;12.902;2022-12-01T17:56:44;98875.00;;;0.30
20848;BMP180;10584;50.854;12.902;2022-12-01T18:01:47;98879.00;;;0.40
20848;BMP180;10584;50.854;12.902;2022-12-01T18:06:51;98883.00;;;0.40
20848;BMP180;10584;50.854;12.902;2022-12-01T18:11:56;98883.00;;;0.40
20848;BMP180;10584;50.854;12.902;2022-12-01T18:16:59;98877.00;;;0.50
20848;BMP180;10584;50.854;12.902;2022-12-01T18:22:02;98883.00;;;0.40
20848;BMP180;10584;50.854;12.902;2022-12-01T18:27:05;98886.00;;;0.50
20848;BMP180;10584;50.854;12.902;2022-12-01T18:32:08;98888.00;;;0.50
20848;BMP180;10584;50.854;12.902;2022-12-01T18:37:12;98881.00;;;0.40
20848;BMP180;10584;50.854;12.902;2022-12-01T18:42:15;98878.00;;;0.40
20848;BMP180;10584;50.854;12.902;2022-12-01T18:47:18;98874.00;;;0.40
20848;BMP180;10584;50.854;12.902;2022-12-01T18:52:21;98885.00;;;0.30
20848;BMP180;10584;50.854;12.902;2022-12-01T18:57:24;98880.00;;;0.40
20848;BMP180;10584;50.854;12.902;2022-12-01T19:02:28;98880.00;;;0.30
20848;BMP180;10584;50.854;12.902;2022-12-01T19:07:31;98880.00;;;0.30
20848;BMP180;10584;50.854;12.902;2022-12-01T19:12:37;98878.00;;;0.30
20848;BMP180;10584;50.854;12.902;2022-12-01T19:17:42;98881.00;;;0.30
20848;BMP180;10584;50.854;12.902;2022-12-01T19:22:46;98871.00;;;0.40
20848;BMP180;10584;50.854;12.902;2022-12-01T19:27:49;98871.00;;;0.40
20848;BMP180;10584;50.854;12.902;2022-12-01T19:32:55;98864.00;;;0.40
20848;BMP180;10584;50.854;12.902;2022-12-01T19:37:58;98858.00;;;0.40
20848;BMP180;10584;50.854;12.902;2022-12-01T19:43:04;98854.00;;;0.40
20848;BMP180;10584;50.854;12.902;2022-12-01T19:48:07;98856.00;;;0.40
20848;BMP180;10584;50.854;12.902;2022-12-01T19:53:10;98855.00;;;0.40
20848;BMP180;10584;50.854;12.902;2022-12-01T19:58:13;98861.00;;;0.40
20848;BMP180;10584;50.854;12.902;2022-12-01T20:03:16;98844.00;;;0.40
20848;BMP180;10584;50.854;12.902;2022-12-01T20:08:20;98849.00;;;0.30
20848;BMP180;10584;50.854;12.902;2022-12-01T20:13:23;98853.00;;;0.30
20848;BMP180;10584;50.854;12.902;2022-12-01T20:18:26;98855.00;;;0.30
20848;BMP180;10584;50.854;12.902;2022-12-01T20:23:29;98854.00;;;0.30
20848;BMP180;10584;50.854;12.902;2022-12-01T20:28:33;98853.00;;;0.30
20848;BMP180;10584;50.854;12.902;2022-12-01T20:33:38;98846.00;;;0.30
20848;BMP180;10584;50.854;12.902;2022-12-01T20:38:41;98842.00;;;0.30
20848;BMP180;10584;50.854;12.902;2022-12-01T20:43:44;98833.00;;;0.20
20848;BMP180;10584;50.854;12.902;2022-12-01T20:48:48;98844.00;;;0.30
20848;BMP180;10584;50.854;12.902;2022-12-01T20:53:51;98834.00;;;0.30
20848;BMP180;10584;50.854;12.902;2022-12-01T20:59:14;98835.00;;;0.40
20848;BMP180;10584;50.854;12.902;2022-12-01T21:04:17;98834.00;;;0.30
20848;BMP180;10584;50.854;12.902;2022-12-01T21:09:20;98829.00;;;0.30
20848;BMP180;10584;50.854;12.902;2022-12-01T21:14:37;98831.00;;;0.30
20848;BMP180;10584;50.854;12.902;2022-12-01T21:25:13;98840.00;;;0.30
20848;BMP180;10584;50.854;12.902;2022-12-01T21:30:22;98841.00;;;0.30
20848;BMP180;10584;50.854;12.902;2022-12-01T21:35:29;98830.00;;;0.30
20848;BMP180;10584;50.854;12.902;2022-12-01T21:40:32;98831.00;;;0.30
20848;BMP180;10584;50.854;12.902;2022-12-01T21:45:35;98833.00;;;0.30
20848;BMP180;10584;50.854;12.902;2022-12-01T21:50:38;98818.00;;;0.30
20848;BMP180;10584;50.854;12.902;2022-12-01T21:55:43;98819.00;;;0.30
20848;BMP180;10584;50.854;12.902;2022-12-01T22:00:47;98816.00;;;0.20
20848;BMP180;10584;50.854;12.902;2022-12-01T22:05:52;98808.00;;;0.30
20848;BMP180;10584;50.854;12.902;2022-12-01T22:11:22;98815.00;;;0.20
20848;BMP180;10584;50.854;12.902;2022-12-01T22:16:29;98813.00;;;0.20
20848;BMP180;10584;50.854;12.902;2022-12-01T22:21:49;98817.00;;;0.20
20848;BMP180;10584;50.854;12.902;2022-12-01T22:32:28;98816.00;;;0.20
20848;BMP180;10584;50.854;12.902;2022-12-01T22:37:44;98809.00;;;0.20
20848;BMP180;10584;50.854;12.902;2022-12-01T22:42:47;98800.00;;;0.20
20848;BMP180;10584;50.854;12.902;2022-12-01T22:47:54;98806.00;;;0.00
20848;BMP180;10584;50.854;12.902;2022-12-01T22:53:25;98797.00;;;0.10
20848;BMP180;10584;50.854;12.902;2022-12-01T22:58:38;98800.00;;;0.10
20848;BMP180;10584;50.854;12.902;2022-12-01T23:03:42;98788.00;;;0.20
20848;BMP180;10584;50.854;12.902;2022-12-01T23:08:46;98793.00;;;0.20
20848;BMP180;10584;50.854;12.902;2022-12-01T23:13:49;98772.00;;;0.20
20848;BMP180;10584;50.854;12.902;2022-12-01T23:18:52;98792.00;;;0.20
20848;BMP180;10584;50.854;12.902;2022-12-01T23:23:55;98778.00;;;0.10
20848;BMP180;10584;50.854;12.902;2022-12-01T23:28:59;98779.00;;;0.10
20848;BMP180;10584;50.854;12.902;2022-12-01T23:34:09;98765.00;;;0.00
20848;BMP180;10584;50.854;12.902;2022-12-01T23:39:15;98763.00;;;0.10
20848;BMP180;10584;50.854;12.902;2022-12-01T23:44:40;98770.00;;;0.10
20848;BMP180;10584;50.854;12.902;2022-12-01T23:49:43;98756.00;;;0.20
20848;BMP180;10584;50.854;12.902;2022-12-01T23:54:48;98752.00;;;0.10
20848;BMP180;10584;50.854;12.902;2022-12-01T23:59:57;98751.00;;;0.00
